Startpagina
METAR-TAF:

METAR-TAF

Vliegvelden :

Marshall Islands International Airport

Majuro, Marshalleilanden

breedte: 07-04N, lengte: 171-17E, hoogte: 2 m

Actueel weer

Dit bericht is 3 uur en het 11 minuten geleden gemaakt, om 10:22 UTC
Wind 10 kt uit het zuidoosten
Temperatuur 28°C
Vochtigheid 84%
Druk 1010 hPa
Zicht: 24.1 km
Weinig wolken op 1500 ft
Verspreide wolken op 5000 ft
Gebroken wolken op 12000 ft
Geheel bewolkt op 30000 ft

METAR: PKMJ 161022Z 14010KT 15SM FEW015 SCT050 BKN120 OVC300 28/25 A2982 RMK LAST

Tijdstip: 01:33 (13:33 UTC)

Verwachting

Dit bericht is 2 uur en het 8 minuten geleden gemaakt, om 11:25 UTC
Verwachting geldig van 16 om 12 UTC tot 17 om 12 UTC
Wind 9 kt uit het oostzuidoosten
Zicht: 10 km
Weinig wolken op 1500 ft
Verspreide wolken op 5000 ft
Gebroken wolken op 10000 ft
buien in de omgeving

TAF: PKMJ 161125Z 1612/1712 11009KT P6SM VCSH FEW015 SCT050 BKN100

Waarnemingen en weersverwachtingen van meer dan 4000 vliegvelden (METAR en TAF).

De beschikbare stations zijn de gele en rode punten op de kaart.

Ga met uw muis naar het station om de naam te zien.

Klik dan om waarnemingen en weersverwachtingen te zien.

kaart wijzigen: klik op de groene knoppen met een zwart kruis om in te zoomen, op de groene knop met een streepje om uit te zoomen of op de groene pijlen voor aangrenzende kaarten.


METAR-TAF: